createdAt,value
2019-05-02T00:04:58.733Z,6.13
2019-05-02T00:10:39.517Z,5.03
2019-05-02T00:16:20.503Z,8.27
2019-05-02T00:22:02.488Z,5.50
2019-05-02T00:27:03.924Z,5.70
2019-05-02T00:32:05.228Z,5.27
2019-05-02T00:37:06.563Z,5.20
2019-05-02T00:42:12.886Z,4.20
2019-05-02T00:47:16.097Z,6.47
2019-05-02T00:52:17.395Z,5.00
2019-05-02T00:57:19.877Z,5.10
2019-05-02T01:02:25.903Z,6.00
2019-05-02T01:07:27.197Z,5.30
2019-05-02T01:12:28.470Z,5.83
2019-05-02T01:17:31.012Z,5.53
2019-05-02T01:22:31.130Z,5.60
2019-05-02T01:27:36.104Z,5.27
2019-05-02T01:32:34.813Z,3.97
2019-05-02T01:38:26.368Z,4.60
2019-05-02T01:44:02.188Z,3.57
2019-05-02T01:49:43.426Z,4.63
2019-05-02T01:55:24.546Z,5.57
2019-05-02T02:01:05.416Z,3.57
2019-05-02T02:06:47.633Z,4.40
2019-05-02T02:12:28.369Z,3.70
2019-05-02T02:17:29.641Z,4.27
2019-05-02T02:22:33.758Z,3.63
2019-05-02T02:27:33.028Z,4.37
2019-05-02T02:32:34.346Z,5.67
2019-05-02T02:37:35.628Z,4.47
2019-05-02T02:42:36.983Z,5.53
2019-05-02T02:47:38.285Z,3.23
2019-05-02T02:52:44.471Z,3.80
2019-05-02T02:57:41.655Z,5.63
2019-05-02T03:02:48.324Z,4.53
2019-05-02T03:07:45.034Z,6.53
2019-05-02T03:12:53.222Z,4.13
2019-05-02T03:18:00.006Z,3.70
2019-05-02T03:22:55.907Z,4.43
2019-05-02T03:27:57.208Z,4.00
2019-05-02T03:33:05.778Z,3.63
2019-05-02T03:37:59.841Z,6.23
2019-05-02T03:43:01.160Z,4.10
2019-05-02T03:48:02.498Z,4.07
2019-05-02T03:53:03.819Z,6.33
2019-05-02T03:58:13.134Z,5.13
2019-05-02T04:03:06.469Z,4.27
2019-05-02T04:08:19.420Z,4.50
2019-05-02T04:13:09.827Z,4.67
2019-05-02T04:18:15.356Z,4.30
2019-05-02T04:23:12.531Z,4.63
2019-05-02T04:28:14.433Z,3.90
2019-05-02T04:33:15.179Z,3.07
2019-05-02T04:38:21.426Z,5.53
2019-05-02T04:43:18.414Z,4.87
2019-05-02T04:48:19.937Z,4.73
2019-05-02T04:53:25.845Z,6.20
2019-05-02T04:58:29.664Z,5.90
2019-05-02T05:03:25.634Z,3.53
2019-05-02T05:08:31.707Z,4.63
2019-05-02T05:13:29.144Z,7.50
2019-05-02T05:18:30.436Z,3.83
2019-05-02T05:23:35.558Z,4.57
2019-05-02T05:28:42.659Z,4.30
2019-05-02T05:33:38.985Z,3.30
2019-05-02T05:38:41.038Z,3.50
2019-05-02T05:43:44.858Z,4.03
2019-05-02T05:48:44.494Z,4.03
2019-05-02T05:53:47.835Z,3.33
2019-05-02T05:58:52.436Z,3.50
2019-05-02T06:03:49.273Z,2.87
2019-05-02T06:08:54.122Z,4.37
2019-05-02T06:13:51.918Z,5.43
2019-05-02T06:18:53.260Z,3.37
2019-05-02T06:23:54.574Z,3.77
2019-05-02T06:28:55.878Z,4.20
2019-05-02T06:33:57.239Z,3.23
2019-05-02T06:38:58.547Z,4.57
2019-05-02T06:43:59.840Z,3.77
2019-05-02T06:49:01.927Z,2.90
2019-05-02T06:54:03.236Z,3.73
2019-05-02T06:59:05.297Z,4.87
2019-05-02T07:04:06.638Z,4.77
2019-05-02T07:09:08.072Z,6.70
2019-05-02T07:14:13.501Z,5.20
2019-05-02T07:19:11.717Z,6.20
2019-05-02T07:24:13.007Z,4.20
2019-05-02T07:29:16.992Z,4.13
2019-05-02T07:34:16.460Z,7.27
2019-05-02T07:39:17.740Z,5.57
2019-05-02T07:44:19.024Z,8.43
2019-05-02T07:49:20.881Z,6.13
2019-05-02T07:54:24.693Z,6.10
2019-05-02T07:59:23.623Z,5.67
2019-05-02T08:04:24.464Z,5.27
2019-05-02T08:09:25.840Z,8.17
2019-05-02T08:14:29.312Z,5.33
2019-05-02T08:19:28.507Z,6.57
2019-05-02T08:24:33.054Z,6.37
2019-05-02T08:29:31.919Z,7.37
2019-05-02T08:34:33.256Z,5.77
2019-05-02T08:39:35.265Z,6.67
2019-05-02T08:44:49.635Z,6.20
2019-05-02T08:49:37.401Z,5.63
2019-05-02T08:54:38.725Z,9.23
2019-05-02T08:59:40.955Z,6.10
2019-05-02T09:04:41.379Z,8.90
2019-05-02T09:09:42.733Z,9.33
2019-05-02T09:14:44.053Z,8.17
2019-05-02T09:19:58.852Z,7.70
2019-05-02T09:24:47.476Z,6.90
2019-05-02T09:29:48.782Z,9.23
2019-05-02T09:34:51.843Z,7.07
2019-05-02T09:39:52.597Z,8.80
2019-05-02T09:44:56.894Z,7.87
2019-05-02T09:50:02.759Z,5.33
2019-05-02T09:55:05.330Z,6.47
2019-05-02T10:00:26.790Z,6.33
2019-05-02T10:05:27.697Z,6.50
2019-05-02T10:10:29.084Z,7.10
2019-05-02T10:15:32.546Z,6.10
2019-05-02T10:20:36.254Z,6.00
2019-05-02T10:25:38.726Z,7.23
2019-05-02T10:30:36.070Z,7.87
2019-05-02T10:35:40.359Z,6.73
2019-05-02T10:40:37.193Z,7.03
2019-05-02T10:45:38.530Z,5.83
2019-05-02T10:50:43.786Z,5.70
2019-05-02T10:55:45.135Z,5.70
2019-05-02T11:00:46.469Z,6.73
2019-05-02T11:05:47.827Z,5.87
2019-05-02T11:10:49.476Z,8.17
2019-05-02T11:15:56.792Z,7.00
2019-05-02T11:20:58.992Z,5.73
2019-05-02T11:25:59.411Z,4.20
2019-05-02T11:31:02.526Z,5.23
2019-05-02T11:36:02.493Z,6.50
2019-05-02T11:41:03.493Z,5.33
2019-05-02T11:46:07.290Z,5.57
2019-05-02T11:51:16.448Z,6.63
2019-05-02T11:56:14.834Z,5.50
2019-05-02T12:01:20.217Z,5.37
2019-05-02T12:06:19.661Z,6.23
2019-05-02T12:11:19.501Z,7.20
2019-05-02T12:16:22.965Z,4.83
2019-05-02T12:21:23.060Z,4.90
2019-05-02T12:26:24.180Z,4.13
2019-05-02T12:31:25.512Z,3.47
2019-05-02T12:36:26.814Z,7.00
2019-05-02T12:41:28.146Z,5.87
2019-05-02T12:46:31.559Z,4.30
2019-05-02T12:51:32.158Z,4.87
2019-05-02T12:56:32.953Z,5.33
2019-05-02T13:01:34.295Z,4.13
2019-05-02T13:06:37.235Z,5.23
2019-05-02T13:11:45.664Z,2.63
2019-05-02T13:16:44.124Z,2.73
2019-05-02T13:21:58.251Z,3.47
2019-05-02T13:26:59.555Z,4.67
2019-05-02T13:31:58.639Z,5.80
2019-05-02T13:37:00.060Z,4.90
2019-05-02T13:42:01.759Z,3.60
2019-05-02T13:47:03.647Z,3.17
2019-05-02T13:52:05.017Z,6.40
2019-05-02T13:57:07.074Z,3.23
2019-05-02T14:02:08.394Z,2.00
2019-05-02T14:07:13.165Z,7.10
2019-05-02T14:12:12.165Z,3.97
2019-05-02T14:17:13.516Z,2.30
2019-05-02T14:22:14.861Z,4.90
2019-05-02T14:27:17.334Z,3.40
2019-05-02T14:32:23.456Z,3.20
2019-05-02T14:37:18.905Z,4.80
2019-05-02T14:42:22.170Z,3.13
2019-05-02T14:47:22.417Z,3.27
2019-05-02T14:52:23.778Z,4.07
2019-05-02T14:57:27.115Z,5.23
2019-05-02T15:02:28.951Z,3.73
2019-05-02T15:07:31.857Z,3.77
2019-05-02T15:12:32.525Z,2.80
2019-05-02T15:17:37.730Z,3.20
2019-05-02T15:22:37.417Z,3.40
2019-05-02T15:27:41.886Z,4.17
2019-05-02T15:32:44.991Z,4.10
2019-05-02T15:37:41.727Z,4.53
2019-05-02T15:42:42.384Z,5.00
2019-05-02T15:47:45.448Z,3.43
2019-05-02T15:52:45.921Z,3.63
2019-05-02T15:57:49.380Z,4.60
2019-05-02T16:02:48.593Z,3.03
2019-05-02T16:07:49.958Z,5.53
2019-05-02T16:12:55.644Z,3.97
2019-05-02T16:18:01.300Z,4.47
2019-05-02T16:22:58.285Z,5.03
2019-05-02T16:28:02.675Z,3.80
2019-05-02T16:33:02.733Z,3.53
2019-05-02T16:38:02.340Z,3.03
2019-05-02T16:43:03.667Z,4.33
2019-05-02T16:48:05.041Z,3.70
2019-05-02T16:53:06.386Z,4.90
2019-05-02T16:58:07.724Z,3.33
2019-05-02T17:03:09.036Z,5.00
2019-05-02T17:08:15.561Z,5.97
2019-05-02T17:13:12.667Z,5.73
2019-05-02T17:18:17.767Z,3.77
2019-05-02T17:23:15.209Z,5.07
2019-05-02T17:28:16.518Z,3.87
2019-05-02T17:33:17.810Z,6.60
2019-05-02T17:38:24.133Z,7.17
2019-05-02T17:43:22.525Z,3.77
2019-05-02T17:48:21.817Z,5.83
2019-05-02T17:53:23.227Z,6.43
2019-05-02T17:58:25.256Z,5.67
2019-05-02T18:03:30.941Z,5.43
2019-05-02T18:08:27.973Z,5.33
2019-05-02T18:13:33.901Z,5.67
2019-05-02T18:18:31.941Z,5.50
2019-05-02T18:23:32.337Z,3.60
2019-05-02T18:28:45.538Z,3.83
2019-05-02T18:33:35.824Z,4.70
2019-05-02T18:38:36.176Z,4.73
2019-05-02T18:43:43.490Z,6.13
2019-05-02T18:48:44.230Z,4.87
2019-05-02T18:53:42.375Z,4.13
2019-05-02T18:58:45.183Z,4.67
2019-05-02T19:03:46.984Z,5.47
2019-05-02T19:08:49.487Z,4.90
2019-05-02T19:13:46.950Z,4.93
2019-05-02T19:18:48.925Z,4.37
2019-05-02T19:23:51.708Z,4.47
2019-05-02T19:28:55.152Z,5.57
2019-05-02T19:33:56.632Z,5.73
2019-05-02T19:39:05.777Z,4.50
2019-05-02T19:43:59.411Z,5.57
2019-05-02T19:49:02.121Z,4.93
2019-05-02T19:54:05.423Z,4.27
2019-05-02T19:59:03.563Z,4.23
2019-05-02T20:04:06.391Z,7.10
2019-05-02T20:09:08.812Z,4.83
2019-05-02T20:14:10.244Z,5.27
2019-05-02T20:19:52.913Z,5.07
2019-05-02T20:25:37.544Z,5.57
2019-05-02T20:31:12.648Z,5.47
2019-05-02T20:36:55.146Z,5.17
2019-05-02T20:42:35.523Z,5.70
2019-05-02T20:48:17.310Z,7.03
2019-05-02T20:54:02.021Z,5.87
2019-05-02T20:59:02.328Z,6.77
2019-05-02T21:04:03.649Z,6.60
2019-05-02T21:09:05.819Z,7.87
2019-05-02T21:14:07.162Z,8.00
2019-05-02T21:19:08.602Z,9.93
2019-05-02T21:24:10.715Z,11.50
2019-05-02T21:29:12.269Z,7.47
2019-05-02T21:34:13.465Z,6.90
2019-05-02T21:39:14.863Z,5.23
2019-05-02T21:44:16.243Z,4.60
2019-05-02T21:49:24.384Z,3.50
2019-05-02T21:54:28.308Z,5.97
2019-05-02T21:59:29.635Z,4.30
2019-05-02T22:04:31.780Z,3.40
2019-05-02T22:09:32.479Z,2.70
2019-05-02T22:14:33.708Z,3.17
2019-05-02T22:19:35.024Z,2.60
2019-05-02T22:24:37.133Z,2.33
2019-05-02T22:29:38.596Z,3.57
2019-05-02T22:34:39.933Z,2.80
2019-05-02T22:39:45.016Z,3.33
2019-05-02T22:44:46.402Z,2.90
2019-05-02T22:49:47.760Z,3.07
2019-05-02T22:54:49.074Z,2.63
2019-05-02T22:59:51.585Z,3.43
2019-05-02T23:04:52.815Z,3.67
2019-05-02T23:09:53.972Z,2.43
2019-05-02T23:14:55.321Z,1.90
2019-05-02T23:19:56.654Z,1.53
2019-05-02T23:25:03.962Z,2.27
2019-05-02T23:30:05.290Z,1.10
2019-05-02T23:35:07.590Z,2.40
2019-05-02T23:40:08.749Z,0.87
2019-05-02T23:45:11.952Z,1.20
2019-05-02T23:50:12.153Z,0.90
2019-05-02T23:55:12.853Z,0.70
